Flight NumberIRM4592 Date09.04.2018
Departure AirportOIKB Arrival AirportOIII
Departure Time19.49Arrival Time21.17
Pilot In CommandSaeed TabaTabaei Block Time1.50 Hours
Pilot Rating100 % AircraftEP-MNK [ A300-600 ]


Distance571.00 Nm. Passengers280
Fuel Used9,328 Kg. Cargo12635 Kg
Expense Details Income Details
Fuel Cost7,404 v$Ticket Sales35,000 v$
Pilot Salary4,123 v$ Cargo income21,624.00 v$
Crew Salary1,400 v$ Bonus9,817 v$
Gross Profit54,782 v$ ( 547,820 v$ )

Client Versionv2.2.0.rc3 Max Simrate1
Flight Critique Pilot CommentsOIII 092100Z 29004KT 9999 FEW040 BKN100 17/03 Q1021 A3018 NOSIG//RADA2P ILS RWY 29L

[ Back ]
FSA VA Integration Pack
Copyright © 2010 FSAirlines.net. Version : 0.1.1